Monday, December 10, 2018, 10:28 PM EST
Back to Local

KEWB, New Bedford Regional Airport

Location: New Bedford, MA, United States Lat: 41.683
Local Time: 10:28 PM EST ( 3:28 GMT) Lon: -70.967
Time Zone: US/Eastern Elev: 78 ft

Show me the last for .
Show Decoded

2018-12-10 21:53 METAR KEWB 110253Z 00000KT 10SM CLR M07/M09 A3016 RMK AO2 SLP213 T10671089 51010
                 =
2018-12-10 20:53 METAR KEWB 110153Z 34003KT 10SM CLR M04/M07 A3015 RMK AO2 SLP211 T10441072 =
2018-12-10 19:53 METAR KEWB 110053Z 00000KT 10SM CLR M06/M07 A3015 RMK AO2 SLP211 T10561067 =
2018-12-10 18:53 METAR KEWB 102353Z 00000KT 10SM CLR M05/M07 A3013 RMK AO2 SLP203 T10501067 10044
                 21050 53013 =
2018-12-10 17:53 METAR KEWB 102253Z 00000KT 10SM CLR M03/M07 A3011 RMK AO2 SLP197 T10331067 =
2018-12-10 16:53 METAR KEWB 102153Z 00000KT 10SM CLR M01/M08 A3010 RMK AO2 SLP194 T10061078 =
2018-12-10 15:53 METAR KEWB 102053Z 02003KT 10SM CLR 02/M07 A3009 RMK AO2 SLP191 T00221072 53012
                 =
2018-12-10 14:53 METAR KEWB 101953Z VRB06KT 10SM CLR 03/M07 A3007 RMK AO2 SLP183 T00331067 =
2018-12-10 13:53 METAR KEWB 101853Z 35007KT 10SM CLR 04/M06 A3007 RMK AO2 SLP182 T00391061 =
2018-12-10 12:53 METAR KEWB 101753Z 34006KT 10SM CLR 04/M06 A3006 RMK AO2 SLP179 T00391061 10044
                 21039 55010 =
2018-12-10 11:53 METAR KEWB 101653Z VRB06KT 10SM CLR 03/M06 A3005 RMK AO2 SLP177 T00331061 =
2018-12-10 10:53 METAR KEWB 101553Z VRB06G16KT 10SM FEW035 03/M07 A3007 RMK AO2 SLP184 T00281067
                 =
2018-12-10 09:53 METAR KEWB 101453Z 35008KT 10SM CLR 02/M07 A3009 RMK AO2 SLP189 T00171067 53011
                 =
2018-12-10 08:53 METAR KEWB 101353Z VRB05KT 10SM CLR M01/M07 A3008 RMK AO2 SLP186 T10111067 =
2018-12-10 07:53 METAR KEWB 101253Z VRB03KT 10SM CLR M03/M07 A3006 RMK AO2 SLP181 T10281072 =
2018-12-10 06:53 METAR KEWB 101153Z 34004KT 10SM CLR M04/M08 A3006 RMK AO2 SLP178 T10391078 11022
                 21067 53002 =
2018-12-10 05:53 METAR KEWB 101053Z AUTO 32003KT 10SM CLR M04/M08 A3005 RMK AO2 SLP177 T10391083
                 =
2018-12-10 04:53 METAR KEWB 100953Z AUTO 00000KT 10SM CLR M05/M08 A3005 RMK AO2 SLP175 T10501078
                 =
2018-12-10 03:53 METAR KEWB 100853Z AUTO 00000KT 10SM CLR M04/M08 A3005 RMK AO2 SLP176 T10391083
                 58016 =
2018-12-10 02:53 METAR KEWB 100753Z AUTO 00000KT 10SM CLR M03/M08 A3007 RMK AO2 SLP182 T10331083
                 =
2018-12-10 01:53 METAR KEWB 100653Z AUTO 31003KT 10SM CLR M03/M08 A3009 RMK AO2 SLP190 T10281078
                 =
2018-12-10 00:53 METAR KEWB 100553Z AUTO 00000KT 10SM CLR M04/M07 A3010 RMK AO2 SLP193 T10391067
                 11006 21039 58021 =
2018-12-09 23:53 METAR KEWB 100453Z AUTO 00000KT 10SM CLR M02/M05 A3012 RMK AO2 SLP200 T10221050
                 400111100 =
2018-12-09 22:53 METAR KEWB 100353Z AUTO 25005KT 10SM CLR M01/M04 A3015 RMK AO2 SLP209 T10061044
                 =

Support USWX by starting your Amazon purchase here.